KPHX/PHX METAR and TAF weather

Enter ICAO airport designator
Station Type Date Time Source
KPHX METAR 2022/05/23 13:51 UTC NOAA

KPHX 231351Z 10006KT 10SM FEW200 FEW250 23/01 A2984 RMK AO2 SLP086 T02330006


Station Type Date Time Source
KPHX Decoded METAR 2022/05/23 13:51 UTC NOAA

Phoenix, Phoenix Sky Harbor International Airport, AZ, United States (KPHX) 33-26-03N 112-03-04W 336M
May 23, 2022 - 09:51 AM EDT / 2022.05.23 1351 UTC
Wind: from the E (100 degrees) at 7 MPH (6 KT):0
Visibility: 10 mile(s):0
Sky conditions: mostly clear
Temperature: 73.9 F (23.3 C)
Dew Point: 33.1 F (0.6 C)
Relative Humidity: 22%
Pressure (altimeter): 29.84 in. Hg (1010 hPa)
ob: KPHX 231351Z 10006KT 10SM FEW200 FEW250 23/01 A2984 RMK AO2 SLP086 T02330006
cycle: 14

Station Type Date Time Source
KPHX TAF 2022/05/23 12:22 UTC NOAA

TAF KPHX 231120Z 2312/2418 09005KT P6SM BKN250
FM231800 24009KT P6SM SCT250
FM232100 25010G20KT P6SM SCT250
FM240500 27009KT P6SM FEW250
FM241100 09007KT P6SM SKC

Example: see airport list